Cédric Boutin (S)

Cédric Boutin (S)

Statistiques 2020

  • Nb de partants : 157
  • Nb de victoires : 11
  • Nb de places : 35
  • Écart gagnant : 8
  • Réussite à la gagne : 7%
  • Réussite à la place : 22%
Musique : 7p 3p 8p 7p 2p 1p 12p 16p 11p 6p 7p 3p 6p 4p 12p 14p 10p 9p

Cédric Boutin (S) en quelques mots

Cédric Boutin est un entraîneur installé à Chantilly. Il est aujourd’hui mieux connu pour l’abondance de ses partants dans les épreuves handicap et à réclamer, ainsi que pour son franc-parler. Cédric Boutin est le fils de Jean-Jacques Boutin, ainsi que le frère de Mathieu, également entraîneurs. En son temps, Cédric Boutin a notamment eu comme apprenti un certain Christophe Soumillon.
ChevalDernière courseCoursesVictoiresR. à la gagnePlacésR. à la place
Houston Bere 16/03/20 4 0 - 1 25%
York Chop 16/03/20 12 1 8% 4 33%
Simbaya 15/03/20 12 1 8% 5 42%
Libello 15/03/20 32 8 25% 12 38%
Galova 15/03/20 7 1 14% 6 86%
Le Gitan 14/03/20 49 9 18% 19 39%
Enjoy The Silence 14/03/20 87 7 8% 30 34%
Handchop 13/03/20 53 6 11% 13 25%
Mathix 13/03/20 50 2 4% 8 16%
Dutch Chop 13/03/20 14 2 14% 4 29%
Riquet 12/03/20 36 3 8% 15 42%
Iggy Chop 12/03/20 64 5 8% 15 23%
Shot In The Dark 11/03/20 64 3 5% 17 27%
Sant Angelo 11/03/20 37 7 19% 12 32%
Mehanydream 11/03/20 23 2 9% 8 35%
Hodeng 10/03/20 15 2 13% 4 27%
Mark Of Excellence 10/03/20 50 6 12% 17 34%
Rockdale 10/03/20 50 6 12% 15 30%
Ricochet 10/03/20 18 1 6% 6 33%
Joe The Tinker 08/03/20 46 0 - 9 20%
Bassmatchi 08/03/20 12 0 - 1 8%
Cheikeljack 06/03/20 27 6 22% 11 41%
Zilli Rocks 05/03/20 7 0 - 1 14%
History Chop 04/03/20 20 1 5% 5 25%
Kenzohope 04/03/20 25 1 4% 2 8%
Jack's Son 02/03/20 46 4 9% 13 28%
Ribot Dream 02/03/20 92 5 5% 34 37%
Vim 27/02/20 121 6 5% 29 24%
Scottish Sun 22/02/20 99 8 8% 22 22%
Sandoside 19/02/20 127 11 9% 41 32%
Ask Me Not 19/02/20 9 3 33% 3 33%
Norwegian Sir 16/02/20 1 0 - 0 -
Espace 14/02/20 4 0 - 1 25%
Saint Romain 12/02/20 11 1 9% 3 27%
Salina 08/02/20 11 0 - 2 18%
Dionydark 27/01/20 6 0 - 1 17%
What Secret 18/12/19 12 2 17% 2 17%
Throttle Control 18/12/19 3 1 33% 1 33%
J'Aurais Du 12/12/19 30 3 10% 9 30%
Ventaron 26/11/19 48 11 23% 26 54%
What A Story 11/11/19 108 6 6% 18 17%
Zalayouni 04/11/19 69 9 13% 20 29%
Viking Quest 20/10/19 152 11 7% 36 24%
Sharela 20/10/19 10 0 - 2 20%
All Revved Up 12/10/19 15 0 - 4 27%
Verti Chop 28/08/19 66 5 8% 28 42%
Admiralty Arch 05/08/19 49 5 10% 11 22%
Dream Of Success 03/07/19 5 0 - 0 -
Pradoro 19/06/19 5 0 - 0 -
Wolf Chop 05/06/19 4 0 - 0 -